Willsboro, NY (12996)

3:01 PM EDT on September 02, 2015 (GMT -0400)
Burlington International | | Change Station
CLOSE
Current Station
Airport
Location: Burlington,
Elevation: 341 ft
Nearby Weather Stations

Elev 341 ft 44.47 °N, 73.15 °W | Updated 7 minutes ago

Partly Cloudy
Partly Cloudy
86 °F
Feels Like 88 °F
N
8
Wind Variable Wind from North

Today
High -- | Low -- °F
--% Chance of Precip.
Yesterday
High -- | Low -- °F
Precip. -- in
6:17 AM 7:28 PM
Waning Gibbous, 78% visible
Pressure 29.93 in
Visibility 10.0 miles
Clouds Few 5000 ft
Scattered Clouds 10000 ft
Mostly Cloudy 25000 ft
Heat Index 88 °F
Dew Point 65 °F
Humidity 49%
Rainfall 0.00 in
Snow Depth Not available.
UV 3 out of 12
Pollen 8.40 out of 12
Air Quality Not available.
Flu Activity Not available.
METAR KBTV 021854Z 01007KT 10SM FEW050 SCT100 BKN250 30/18 A2993 RMK AO2 SLP134 HZ OBSCG MTNS E-S T03000183
Pressure 29.93 in
Visibility 10.0 miles
Clouds Few 5000 ft
Scattered Clouds 10000 ft
Mostly Cloudy 25000 ft
Heat Index 88 °F
Dew Point 65 °F
Humidity 49%
Rainfall 0.00 in
Snow Depth Not available.
UV 3 out of 12
Pollen 8.40 out of 12
Air Quality Not available.
Flu Activity Not available.
METAR KBTV 021854Z 01007KT 10SM FEW050 SCT100 BKN250 30/18 A2993 RMK AO2 SLP134 HZ OBSCG MTNS E-S T03000183

10-Day Weather Forecast

×

Almanac

Astronomy

Sep. 02, 2015 Rise Set
Actual Time
Civil Twilight
Nautical Twilight
Astronomical Twilight
Moon
Length of Visible Light
Length of Day
Tomorrow will be .
, % of the Moon is Illuminated

Today's Extremes

State Highs State Lows

Community

WunderPhotos

Upload Photos

1,851,799 photos uploaded!

WunderBlogs® & News

Nearby

Air Quality

  Air Quality AQ Index Pollutant
Not available.

Snow Depth

Station Depth Elevation

Earthquake Activity

City Distance Mag. Time & Date
Minimum magnitude displayed is 2.5.

Coastal Water Temperatures

Place Temperature

Stations

Nearby Weather Stations

Station Location Temp. Windchill Dew Point Humidity Wind Precip. Elev Updated Type